Time;durP1;ratioP1;P1;durP2;ratioP2;P2;SDS_P1;SDS_P2;PMS_P1;PMS_P2;Temp;Humidity;BMP_temperature;BMP_pressure;BME280_temperature;BME280_humidity;BME280_pressure;Samples;Min_cycle;Max_cycle;Signal;HPM_P1;HPM_P2
2023/05/06 00:02:19;;;;;;;3.93;3.53;;;;;;;15.09;100.00;100408.81;5027101;28;20205;-75
2023/05/06 00:04:44;;;;;;;4.07;3.10;;;;;;;15.09;100.00;100405.31;5007404;28;20524;-76
2023/05/06 00:07:10;;;;;;;3.30;3.10;;;;;;;15.09;100.00;100397.50;5003693;28;20214;-75
2023/05/06 00:09:35;;;;;;;3.17;2.87;;;;;;;15.11;100.00;100398.31;5025264;28;20283;-75
2023/05/06 00:12:01;;;;;;;3.30;3.00;;;;;;;15.13;100.00;100406.97;5023122;28;20596;-75
2023/05/06 00:14:26;;;;;;;3.37;3.07;;;;;;;15.13;100.00;100406.09;5024427;28;20183;-76
2023/05/06 00:16:51;;;;;;;5.03;3.60;;;;;;;15.11;100.00;100395.72;5027890;28;20182;-76
2023/05/06 00:19:17;;;;;;;4.27;3.83;;;;;;;15.09;100.00;100393.16;5028164;28;20654;-75
2023/05/06 00:21:42;;;;;;;4.00;3.67;;;;;;;15.07;100.00;100396.69;5028179;28;20663;-75
2023/05/06 00:24:07;;;;;;;4.20;3.90;;;;;;;15.05;100.00;100396.75;5027679;28;20331;-75
2023/05/06 00:26:33;;;;;;;4.00;3.70;;;;;;;15.01;100.00;100389.03;5026900;28;20234;-75
2023/05/06 00:28:58;;;;;;;4.13;3.83;;;;;;;15.00;100.00;100384.72;5025375;28;20187;-77
2023/05/06 00:31:23;;;;;;;5.40;4.90;;;;;;;14.98;100.00;100384.75;5010247;28;20215;-75
2023/05/06 00:33:49;;;;;;;5.23;4.73;;;;;;;14.96;100.00;100391.78;5019873;28;20797;-74
2023/05/06 00:36:14;;;;;;;5.53;5.10;;;;;;;14.94;100.00;100388.34;5009738;28;20218;-75
2023/05/06 00:38:39;;;;;;;6.53;5.10;;;;;;;14.93;100.00;100377.06;5026578;28;20199;-75
2023/05/06 00:41:05;;;;;;;6.27;5.03;;;;;;;14.93;100.00;100381.44;5027801;28;20218;-76
2023/05/06 00:43:30;;;;;;;4.47;4.10;;;;;;;14.92;100.00;100383.16;5020635;28;20262;-76
2023/05/06 00:45:55;;;;;;;4.80;4.40;;;;;;;14.92;100.00;100383.16;5026775;28;20716;-76
2023/05/06 00:48:21;;;;;;;4.37;3.97;;;;;;;14.92;100.00;100377.94;5025857;28;20184;-76
2023/05/06 00:50:46;;;;;;;3.90;3.60;;;;;;;14.93;100.00;100382.25;5009586;28;20233;-75
2023/05/06 00:53:11;;;;;;;4.20;3.80;;;;;;;14.92;100.00;100375.34;5026019;28;20209;-74
2023/05/06 00:55:38;;;;;;;4.03;3.73;;;;;;;14.90;100.00;100371.06;5009048;28;20194;-75
2023/05/06 00:58:04;;;;;;;4.30;3.90;;;;;;;14.88;100.00;100371.13;5027514;28;20187;-75
2023/05/06 01:00:29;;;;;;;3.80;3.47;;;;;;;14.84;100.00;100377.31;5027531;28;20179;-75
2023/05/06 01:02:55;;;;;;;4.03;3.73;;;;;;;14.81;100.00;100377.38;5026915;28;20261;-76
2023/05/06 01:05:24;;;;;;;3.80;3.60;;;;;;;14.74;100.00;100373.22;5030411;28;20897;-76
2023/05/06 01:07:59;;;;;;;3.83;3.53;;;;;;;14.68;100.00;100378.56;5023434;28;20250;-75
2023/05/06 01:10:35;;;;;;;4.20;3.90;;;;;;;14.60;100.00;100376.13;5025565;28;20209;-76
2023/05/06 01:13:11;;;;;;;4.63;4.30;;;;;;;14.51;100.00;100382.41;5007240;28;20200;-75
2023/05/06 01:15:51;;;;;;;3.83;3.53;;;;;;;14.42;100.00;100380.03;5027799;28;20186;-75
2023/05/06 01:18:21;;;;;;;3.87;3.57;;;;;;;14.34;100.00;100380.22;5027456;28;20544;-75
2023/05/06 01:20:49;;;;;;;4.27;3.87;;;;;;;14.28;100.00;100375.13;5023055;28;20194;-75
2023/05/06 01:23:15;;;;;;;4.43;4.03;;;;;;;14.20;100.00;100377.91;5028377;28;20239;-76
2023/05/06 01:25:41;;;;;;;4.70;4.23;;;;;;;14.13;100.00;100381.56;5026751;28;20225;-74
2023/05/06 01:28:09;;;;;;;4.40;4.00;;;;;;;14.08;100.00;100373.81;5027335;28;20195;-76
2023/05/06 01:30:58;;;;;;;4.80;4.40;;;;;;;14.02;100.00;100377.41;5025583;28;20290;-76
2023/05/06 01:33:31;;;;;;;4.80;4.40;;;;;;;13.97;100.00;100388.81;5024317;28;20237;-74
2023/05/06 01:36:17;;;;;;;4.50;4.10;;;;;;;13.92;100.00;100381.13;5026009;28;20215;-76
2023/05/06 01:38:42;;;;;;;4.43;4.03;;;;;;;13.87;100.00;100369.94;5026212;28;20183;-76
2023/05/06 01:41:13;;;;;;;4.27;3.87;;;;;;;13.83;100.00;100370.94;5006903;28;20699;-75
2023/05/06 01:43:41;;;;;;;4.20;3.90;;;;;;;13.79;100.00;100371.88;5021168;28;20250;-75
2023/05/06 01:46:15;;;;;;;4.63;4.30;;;;;;;13.75;100.00;100368.47;5007183;28;20220;-76
2023/05/06 01:48:41;;;;;;;4.30;4.00;;;;;;;13.74;100.00;100371.09;5026249;28;20217;-76
2023/05/06 01:51:07;;;;;;;4.50;4.10;;;;;;;13.72;100.00;100369.38;5025583;28;20223;-75
2023/05/06 01:53:32;;;;;;;4.40;4.10;;;;;;;13.71;100.00;100383.28;5006867;28;20299;-75
2023/05/06 01:55:58;;;;;;;4.73;4.10;;;;;;;13.72;100.00;100381.53;5027165;28;20187;-75
2023/05/06 01:58:23;;;;;;;4.77;4.37;;;;;;;13.69;100.00;100374.63;5021306;28;20191;-75
2023/05/06 02:00:48;;;;;;;4.23;3.90;;;;;;;13.67;100.00;100375.56;5026829;28;20763;-75
2023/05/06 02:03:14;;;;;;;4.83;4.37;;;;;;;13.65;100.00;100374.75;5027210;28;20286;-75
2023/05/06 02:05:39;;;;;;;4.07;3.77;;;;;;;13.61;100.00;100373.94;5023812;28;20611;-75
2023/05/06 02:08:04;;;;;;;4.77;4.37;;;;;;;13.60;100.00;100372.25;5022021;28;20400;-74
2023/05/06 02:10:29;;;;;;;4.80;4.37;;;;;;;13.57;100.00;100367.97;5026795;28;20295;-75
2023/05/06 02:12:55;;;;;;;5.33;4.83;;;;;;;13.55;100.00;100374.94;5025402;28;20237;-75
2023/05/06 02:15:20;;;;;;;4.97;4.57;;;;;;;13.52;100.00;100372.41;5025127;28;20209;-77
2023/05/06 02:17:45;;;;;;;5.07;4.67;;;;;;;13.50;100.00;100378.53;5024440;28;20221;-75
2023/05/06 02:20:11;;;;;;;4.83;4.43;;;;;;;13.47;100.00;100379.41;5022851;28;20193;-75
2023/05/06 02:22:36;;;;;;;4.93;4.43;;;;;;;13.43;100.00;100376.91;5023986;28;20332;-76
2023/05/06 02:25:02;;;;;;;4.70;4.30;;;;;;;13.38;100.00;100385.66;5025924;28;20218;-74
2023/05/06 02:27:28;;;;;;;5.40;4.30;;;;;;;13.35;100.00;100382.22;5024402;28;20643;-76
2023/05/06 02:29:53;;;;;;;4.57;4.17;;;;;;;13.33;100.00;100378.78;5026945;28;20193;-75
2023/05/06 02:32:18;;;;;;;4.37;3.97;;;;;;;13.29;100.00;100374.56;5025664;28;20209;-74
2023/05/06 02:34:44;;;;;;;4.40;4.10;;;;;;;13.26;100.00;100375.44;5022874;28;20195;-75
2023/05/06 02:37:09;;;;;;;4.20;3.80;;;;;;;13.23;100.00;100362.53;5022599;28;20187;-76
2023/05/06 02:39:34;;;;;;;4.50;4.20;;;;;;;13.21;100.00;100370.34;5024977;28;20572;-77
2023/05/06 02:42:01;;;;;;;4.23;3.93;;;;;;;13.18;100.00;100370.41;5025730;28;20194;-78
2023/05/06 02:44:26;;;;;;;5.07;4.67;;;;;;;13.15;100.00;100369.59;5025299;28;20194;-76
2023/05/06 02:46:52;;;;;;;4.57;4.27;;;;;;;13.12;100.00;100367.94;5024144;28;20576;-74
2023/05/06 02:49:17;;;;;;;5.27;4.87;;;;;;;13.09;100.00;100365.38;5025468;28;20193;-75
2023/05/06 02:51:42;;;;;;;4.97;4.47;;;;;;;13.06;100.00;100362.84;5023159;28;20230;-75
2023/05/06 02:54:07;;;;;;;5.37;4.90;;;;;;;13.04;100.00;100359.41;5023166;28;20205;-75
2023/05/06 02:56:34;;;;;;;5.00;4.50;;;;;;;13.01;100.00;100355.13;5005846;28;20189;-75
2023/05/06 02:59:00;;;;;;;4.73;4.37;;;;;;;12.98;100.00;100352.56;5024445;28;20194;-75
2023/05/06 03:01:25;;;;;;;5.00;4.60;;;;;;;12.98;100.00;100351.72;5023593;28;20185;-77
2023/05/06 03:03:51;;;;;;;4.47;4.17;;;;;;;12.97;100.00;100348.25;5026860;28;20868;-76
2023/05/06 03:06:16;;;;;;;4.50;4.10;;;;;;;12.96;100.00;100351.75;5020307;28;20745;-75
2023/05/06 03:08:41;;;;;;;4.77;4.47;;;;;;;12.96;100.00;100354.34;5022979;28;20189;-76
2023/05/06 03:11:07;;;;;;;5.00;4.60;;;;;;;12.95;100.00;100355.22;5021658;28;20309;-75
2023/05/06 03:13:32;;;;;;;4.70;4.23;;;;;;;12.94;100.00;100351.78;5024063;28;20208;-75
2023/05/06 03:15:57;;;;;;;4.70;4.27;;;;;;;12.91;100.00;100354.44;5004841;28;20220;-76
2023/05/06 03:18:23;;;;;;;4.77;4.37;;;;;;;12.88;100.00;100351.88;5008488;28;20184;-74
2023/05/06 03:20:48;;;;;;;4.63;4.33;;;;;;;12.83;100.00;100345.94;5023937;28;20677;-75
2023/05/06 03:23:13;;;;;;;4.50;4.20;;;;;;;12.80;100.00;100354.59;5021350;28;21217;-75
2023/05/06 03:25:39;;;;;;;4.20;3.90;;;;;;;12.78;100.00;100358.13;5024124;28;20234;-76
2023/05/06 03:28:04;;;;;;;4.67;4.27;;;;;;;12.72;100.00;100351.31;5026605;28;20188;-75
2023/05/06 03:30:30;;;;;;;4.10;3.80;;;;;;;12.68;100.00;100360.00;5022515;28;20215;-76
2023/05/06 03:32:55;;;;;;;4.10;3.80;;;;;;;12.64;100.00;100353.16;5025242;28;20207;-76
2023/05/06 03:35:21;;;;;;;4.03;3.73;;;;;;;12.60;100.00;100351.50;5023785;28;20181;-77
2023/05/06 03:37:46;;;;;;;3.80;3.50;;;;;;;12.55;100.00;100351.59;5023161;28;20219;-74
2023/05/06 03:40:12;;;;;;;3.73;3.43;;;;;;;12.53;100.00;100355.06;5008704;28;20184;-76
2023/05/06 03:42:37;;;;;;;3.97;3.67;;;;;;;12.47;100.00;100356.03;5007205;28;20199;-75
2023/05/06 03:45:05;;;;;;;4.00;3.70;;;;;;;12.42;100.00;100347.44;5008217;28;20195;-75
2023/05/06 03:47:30;;;;;;;6.53;3.90;;;;;;;12.37;100.00;100357.91;5027324;28;20251;-76
2023/05/06 03:49:56;;;;;;;3.60;3.23;;;;;;;12.32;100.00;100352.78;5026462;28;20299;-76
2023/05/06 03:52:21;;;;;;;3.73;3.53;;;;;;;12.28;100.00;100353.72;5006185;28;20242;-75
2023/05/06 03:54:46;;;;;;;3.20;3.00;;;;;;;12.23;100.00;100354.66;5030156;28;20194;-75
2023/05/06 03:57:12;;;;;;;2.53;2.33;;;;;;;12.19;100.00;100353.84;5029882;28;20201;-76
2023/05/06 03:59:37;;;;;;;2.40;2.30;;;;;;;12.14;100.00;100353.94;5031816;28;20196;-76
2023/05/06 04:02:02;;;;;;;1.80;1.70;;;;;;;12.10;100.00;100347.06;5032561;28;20176;-76
2023/05/06 04:04:28;;;;;;;1.97;1.87;;;;;;;12.06;100.00;100350.56;5025498;28;20193;-75
2023/05/06 04:06:54;;;;;;;2.03;1.93;;;;;;;12.02;100.00;100348.91;5033279;28;20188;-74
2023/05/06 04:09:19;;;;;;;1.90;1.70;;;;;;;12.00;100.00;100351.53;5032933;28;20184;-75
2023/05/06 04:11:44;;;;;;;2.20;2.00;;;;;;;12.01;100.00;100347.19;5032745;28;20235;-75
2023/05/06 04:14:10;;;;;;;2.10;2.00;;;;;;;12.03;100.00;100346.28;5028273;28;20302;-76
2023/05/06 04:16:35;;;;;;;1.77;1.67;;;;;;;12.06;100.00;100355.75;5031377;28;20754;-77
2023/05/06 04:19:02;;;;;;;2.10;2.00;;;;;;;12.13;100.00;100354.81;5033197;28;20222;-76
2023/05/06 04:21:28;;;;;;;2.00;1.80;;;;;;;12.27;100.00;100351.16;5031263;28;20238;-76
2023/05/06 04:23:54;;;;;;;1.90;1.80;;;;;;;12.44;100.00;100346.56;5031279;28;20265;-76
2023/05/06 04:26:19;;;;;;;2.00;1.90;;;;;;;12.58;100.00;100353.28;5028016;28;20198;-75
2023/05/06 04:28:44;;;;;;;1.90;1.80;;;;;;;12.68;100.00;100354.81;5028180;28;20323;-75
2023/05/06 04:31:10;;;;;;;2.00;1.80;;;;;;;12.75;100.00;100351.25;5026867;28;20294;-77
2023/05/06 04:33:36;;;;;;;2.20;2.10;;;;;;;12.82;100.00;100352.00;5026181;28;20765;-75
2023/05/06 04:36:02;;;;;;;2.07;1.93;;;;;;;12.92;100.00;100365.69;5023743;28;20190;-76
2023/05/06 04:38:30;;;;;;;2.20;2.00;;;;;;;12.99;100.00;100362.09;5023716;28;20189;-77
2023/05/06 04:40:56;;;;;;;1.93;1.70;;;;;;;13.05;100.00;100362.00;5024330;28;20277;-77
2023/05/06 04:43:21;;;;;;;1.87;1.77;;;;;;;13.14;100.00;100373.97;5009317;28;20646;-75
2023/05/06 04:45:50;;;;;;;1.63;1.53;;;;;;;13.26;100.00;100372.84;5025046;28;20631;-77
2023/05/06 04:48:17;;;;;;;1.47;1.37;;;;;;;13.42;100.00;100376.06;5008237;28;20184;-78
2023/05/06 04:50:43;;;;;;;1.53;1.43;;;;;;;13.51;100.00;100378.47;5026730;28;20246;-76
2023/05/06 04:53:08;;;;;;;1.53;1.43;;;;;;;13.60;100.00;100381.81;5029313;28;20239;-76
2023/05/06 04:55:34;;;;;;;1.80;1.70;;;;;;;13.69;100.00;100390.25;5009515;28;20188;-76
2023/05/06 04:57:59;;;;;;;1.73;1.63;;;;;;;13.79;100.00;100387.47;5008198;28;20186;-75
2023/05/06 05:00:26;;;;;;;1.80;1.70;;;;;;;13.89;100.00;100389.00;5023024;28;20216;-76
2023/05/06 05:02:51;;;;;;;2.60;2.40;;;;;;;14.04;100.00;100385.22;5024276;28;20202;-76
2023/05/06 05:05:17;;;;;;;2.50;2.40;;;;;;;14.26;100.00;100390.78;5022980;28;20544;-76
2023/05/06 05:07:42;;;;;;;2.40;2.30;;;;;;;14.46;100.00;100392.94;5010864;28;20280;-75
2023/05/06 05:10:09;;;;;;;2.33;2.23;;;;;;;14.64;100.00;100386.41;5024186;28;20208;-76
2023/05/06 05:12:34;;;;;;;2.50;2.40;;;;;;;14.88;100.00;100388.50;5005648;28;20291;-76
2023/05/06 05:14:59;;;;;;;2.87;2.67;;;;;;;15.37;100.00;100395.03;5027316;28;20274;-77
2023/05/06 05:17:25;;;;;;;2.93;2.70;;;;;;;15.84;100.00;100393.75;5021787;28;20193;-77
2023/05/06 05:19:51;;;;;;;3.00;2.80;;;;;;;16.20;100.00;100387.50;5023435;28;20183;-77
2023/05/06 05:22:17;;;;;;;2.83;2.50;;;;;;;16.56;100.00;100385.47;5028921;28;20203;-76
2023/05/06 05:24:42;;;;;;;3.17;2.80;;;;;;;17.08;100.00;100395.13;5022948;28;20982;-76
2023/05/06 05:27:07;;;;;;;2.90;2.70;;;;;;;17.72;100.00;100385.88;5026886;28;20189;-76
2023/05/06 05:29:33;;;;;;;2.80;2.30;;;;;;;18.32;100.00;100395.84;5024897;28;20917;-75
2023/05/06 05:31:58;;;;;;;2.70;2.50;;;;;;;18.97;100.00;100381.91;5022321;28;20196;-78
2023/05/06 05:34:23;;;;;;;2.50;2.30;;;;;;;19.43;100.00;100384.28;5024083;28;20582;-76
2023/05/06 05:36:49;;;;;;;2.30;2.10;;;;;;;19.76;100.00;100394.19;5025985;28;20250;-75
2023/05/06 05:39:14;;;;;;;2.53;2.33;;;;;;;20.07;100.00;100387.56;5024693;28;20250;-76
2023/05/06 05:41:39;;;;;;;2.40;2.20;;;;;;;20.29;100.00;100383.91;5020090;28;20183;-76
2023/05/06 05:44:05;;;;;;;2.47;2.10;;;;;;;20.62;100.00;100386.69;5025488;28;20264;-75
2023/05/06 05:46:30;;;;;;;2.93;2.27;;;;;;;20.90;99.61;100384.44;5008364;28;20838;-76
2023/05/06 05:48:56;;;;;;;2.40;2.10;;;;;;;21.06;99.01;100392.44;5018240;28;20218;-77
2023/05/06 05:51:21;;;;;;;2.70;2.50;;;;;;;21.16;98.59;100388.38;5017652;28;20212;-77
2023/05/06 05:53:47;;;;;;;2.70;2.50;;;;;;;21.28;98.11;100387.75;5019174;28;20214;-76
2023/05/06 05:56:12;;;;;;;2.37;2.20;;;;;;;21.50;97.58;100394.53;5019870;28;20219;-76
2023/05/06 05:58:37;;;;;;;2.47;2.27;;;;;;;21.78;96.54;100390.44;5019452;28;20190;-76
2023/05/06 06:01:03;;;;;;;2.50;2.17;;;;;;;21.87;96.00;100383.81;5019951;28;20727;-77
2023/05/06 06:03:28;;;;;;;2.50;2.40;;;;;;;21.92;95.93;100381.78;5020569;28;20211;-76
2023/05/06 06:05:54;;;;;;;2.33;2.13;;;;;;;21.86;96.14;100384.75;5019874;28;20197;-76
2023/05/06 06:08:19;;;;;;;2.23;2.03;;;;;;;21.83;96.13;100385.78;5016407;28;20183;-76
2023/05/06 06:10:46;;;;;;;2.10;2.00;;;;;;;21.92;95.97;100395.78;5015172;28;20563;-76
2023/05/06 06:13:11;;;;;;;2.60;2.40;;;;;;;22.14;95.02;100396.38;5012015;28;20207;-76
2023/05/06 06:15:37;;;;;;;2.30;2.10;;;;;;;22.38;94.16;100399.44;5016921;28;20187;-76
2023/05/06 06:18:02;;;;;;;2.23;2.00;;;;;;;22.88;92.62;100396.63;5016177;28;20824;-76
2023/05/06 06:20:28;;;;;;;2.40;2.20;;;;;;;23.33;90.97;100397.50;5024517;28;20182;-77
2023/05/06 06:22:53;;;;;;;2.20;2.00;;;;;;;23.77;89.47;100400.94;5020202;28;20222;-75
2023/05/06 06:25:20;;;;;;;2.37;2.20;;;;;;;24.18;88.03;100409.88;5001861;28;20286;-75
2023/05/06 06:27:45;;;;;;;1.87;1.77;;;;;;;24.90;85.91;100398.16;5016170;28;20188;-78
2023/05/06 06:30:11;;;;;;;2.97;2.00;;;;;;;25.57;83.47;100397.13;5015528;28;20933;-76
2023/05/06 06:32:46;;;;;;;2.30;2.10;;;;;;;25.88;81.87;100400.25;5017429;28;20211;-77
2023/05/06 06:35:12;;;;;;;2.63;2.43;;;;;;;25.91;81.75;100397.38;5019980;28;20194;-76
2023/05/06 06:37:37;;;;;;;1.87;1.77;;;;;;;26.32;80.18;100398.00;5022342;28;20182;-77
2023/05/06 06:40:03;;;;;;;2.27;2.10;;;;;;;26.80;79.16;100402.44;5022486;28;21100;-75
2023/05/06 06:42:28;;;;;;;2.27;2.07;;;;;;;27.12;77.43;100396.47;5002880;28;20218;-76
2023/05/06 06:44:53;;;;;;;2.87;2.10;;;;;;;27.35;76.66;100396.50;5019612;28;20759;-76
2023/05/06 06:47:19;;;;;;;2.97;1.90;;;;;;;27.50;75.99;100405.97;5006367;28;20191;-76
2023/05/06 06:49:45;;;;;;;4.23;2.40;;;;;;;27.31;76.14;100401.19;5018620;28;20210;-75
2023/05/06 06:52:10;;;;;;;2.13;1.93;;;;;;;26.92;75.98;100404.16;5019592;28;20210;-76
2023/05/06 06:54:37;;;;;;;2.70;2.30;;;;;;;26.33;76.81;100408.50;5020405;28;20224;-76
2023/05/06 06:57:03;;;;;;;2.83;2.37;;;;;;;25.84;78.15;100396.97;5018662;28;20206;-76
2023/05/06 06:59:28;;;;;;;2.60;2.40;;;;;;;25.68;78.91;100405.19;5015596;28;20561;-75
2023/05/06 07:01:54;;;;;;;3.20;2.40;;;;;;;25.55;79.06;100404.34;5012917;28;20179;-75
2023/05/06 07:04:19;;;;;;;3.43;2.53;;;;;;;25.56;78.59;100403.41;5016154;28;20207;-76
2023/05/06 07:06:45;;;;;;;2.93;2.73;;;;;;;25.68;78.34;100402.53;5014335;28;20290;-75
2023/05/06 07:09:11;;;;;;;2.67;2.47;;;;;;;25.90;78.00;100408.94;5014400;28;20188;-76
2023/05/06 07:11:36;;;;;;;2.40;2.20;;;;;;;26.05;77.32;100412.31;5014737;28;20199;-75
2023/05/06 07:14:02;;;;;;;2.20;2.10;;;;;;;26.17;77.19;100410.56;5015339;28;20728;-76
2023/05/06 07:16:27;;;;;;;2.63;2.47;;;;;;;26.12;77.24;100410.09;4998184;28;20184;-77
2023/05/06 07:18:52;;;;;;;2.60;2.40;;;;;;;26.03;77.23;100415.03;5012272;28;20270;-76
2023/05/06 07:21:18;;;;;;;2.70;2.50;;;;;;;26.14;76.95;100413.47;5013124;28;20199;-77
2023/05/06 07:23:43;;;;;;;2.40;2.20;;;;;;;26.38;76.38;100410.84;5001183;28;20202;-76
2023/05/06 07:26:09;;;;;;;2.40;2.20;;;;;;;26.66;75.85;100414.06;5017256;28;20729;-77
2023/05/06 07:28:34;;;;;;;2.27;2.07;;;;;;;26.72;75.17;100413.59;5017085;28;20187;-75
2023/05/06 07:30:59;;;;;;;2.20;2.00;;;;;;;26.66;74.62;100416.72;5017310;28;21174;-76
2023/05/06 07:33:25;;;;;;;2.53;2.13;;;;;;;26.46;74.73;100416.41;5019392;28;20244;-76
2023/05/06 07:35:52;;;;;;;2.07;1.97;;;;;;;26.32;75.02;100413.91;5000012;28;20187;-76
2023/05/06 07:38:20;;;;;;;2.30;2.20;;;;;;;26.14;75.30;100424.09;5015828;28;20884;-76
2023/05/06 07:40:46;;;;;;;2.27;2.07;;;;;;;25.89;76.10;100417.00;5017216;28;20183;-76
2023/05/06 07:43:11;;;;;;;3.13;2.47;;;;;;;25.71;76.03;100417.34;5016154;28;20273;-77
2023/05/06 07:45:36;;;;;;;2.80;2.60;;;;;;;25.62;76.85;100418.03;5015915;28;20202;-76
2023/05/06 07:48:02;;;;;;;2.70;2.50;;;;;;;25.46;77.01;100416.44;5017408;28;20206;-76
2023/05/06 07:50:27;;;;;;;2.73;2.53;;;;;;;25.26;77.33;100418.63;5016406;28;20322;-76
2023/05/06 07:52:52;;;;;;;2.50;2.30;;;;;;;25.19;78.18;100422.66;5016808;28;20905;-76
2023/05/06 07:55:17;;;;;;;2.60;2.40;;;;;;;25.13;78.60;100423.09;5015907;28;20188;-76
2023/05/06 07:57:43;;;;;;;2.83;2.57;;;;;;;25.05;78.82;100433.31;5021974;28;20306;-77
2023/05/06 08:00:09;;;;;;;3.70;2.30;;;;;;;24.96;79.03;100430.38;5017920;28;20289;-75
2023/05/06 08:02:35;;;;;;;2.30;2.10;;;;;;;24.77;79.73;100427.25;4999295;28;20211;-77
2023/05/06 08:05:00;;;;;;;2.47;2.27;;;;;;;24.56;80.56;100445.34;5020167;28;20183;-77
2023/05/06 08:07:26;;;;;;;2.00;1.80;;;;;;;24.33;80.90;100437.13;5020904;28;20623;-76
2023/05/06 08:09:51;;;;;;;2.03;1.83;;;;;;;24.07;81.76;100434.34;5023594;28;20916;-76
2023/05/06 08:12:16;;;;;;;2.33;2.13;;;;;;;23.83;81.90;100431.41;5021901;28;20219;-77
2023/05/06 08:14:41;;;;;;;2.20;2.00;;;;;;;23.57;82.37;100436.53;5021271;28;20207;-75
2023/05/06 08:17:07;;;;;;;1.80;1.70;;;;;;;23.32;82.59;100434.53;5021938;28;20202;-75
2023/05/06 08:19:32;;;;;;;2.97;1.60;;;;;;;23.07;82.29;100428.88;5006175;28;20702;-77
2023/05/06 08:21:57;;;;;;;2.20;1.73;;;;;;;22.92;82.70;100441.22;5021412;28;20215;-76
2023/05/06 08:24:23;;;;;;;3.03;2.00;;;;;;;22.81;82.97;100436.56;5006130;28;20778;-76
2023/05/06 08:26:48;;;;;;;2.10;1.80;;;;;;;22.64;81.75;100442.81;5022670;28;20240;-76
2023/05/06 08:29:13;;;;;;;2.10;1.77;;;;;;;22.38;81.88;100442.47;5021799;28;20225;-75
2023/05/06 08:31:39;;;;;;;1.57;1.40;;;;;;;22.32;82.63;100441.94;5020002;28;20211;-77
2023/05/06 08:34:04;;;;;;;1.60;1.47;;;;;;;22.41;83.09;100446.72;5022496;28;20273;-76
2023/05/06 08:36:31;;;;;;;2.30;1.37;;;;;;;22.52;82.91;100432.97;5022294;28;20227;-76
2023/05/06 08:38:56;;;;;;;1.47;1.37;;;;;;;22.60;82.53;100435.19;5020207;28;20573;-77
2023/05/06 08:41:24;;;;;;;1.90;1.40;;;;;;;22.71;82.14;100434.53;5022469;28;20191;-75
2023/05/06 08:43:49;;;;;;;1.57;1.47;;;;;;;22.77;81.62;100434.19;5021907;28;20556;-76
2023/05/06 08:46:15;;;;;;;1.47;1.37;;;;;;;22.84;80.77;100441.66;5019724;28;20199;-75
2023/05/06 08:48:41;;;;;;;1.40;1.30;;;;;;;22.99;80.01;100437.25;5020803;28;20191;-76
2023/05/06 08:51:07;;;;;;;1.20;1.10;;;;;;;23.20;79.74;100428.19;5023830;28;20689;-75
2023/05/06 08:53:32;;;;;;;1.30;1.20;;;;;;;23.43;79.06;100429.47;5020725;28;20214;-76
2023/05/06 08:56:05;;;;;;;1.53;1.20;;;;;;;23.67;78.32;100427.09;5021586;28;20233;-77
2023/05/06 08:58:33;;;;;;;1.23;0.80;;;;;;;23.92;77.66;100424.72;5021707;28;20229;-75
2023/05/06 09:01:00;;;;;;;1.40;1.20;;;;;;;24.12;77.48;100426.16;5017921;28;20190;-75
2023/05/06 09:03:25;;;;;;;1.27;1.10;;;;;;;24.28;77.05;100424.19;5022879;28;20205;-77
2023/05/06 09:05:50;;;;;;;1.10;1.00;;;;;;;24.42;76.40;100425.94;5019876;28;20565;-75
2023/05/06 09:08:16;;;;;;;1.17;1.07;;;;;;;24.53;76.14;100416.44;5022447;28;20187;-76
2023/05/06 09:10:45;;;;;;;1.63;1.27;;;;;;;24.60;76.21;100418.59;5022074;28;20509;-76
2023/05/06 09:13:18;;;;;;;1.20;1.10;;;;;;;24.64;75.77;100419.25;5021888;28;20267;-77
2023/05/06 09:15:46;;;;;;;1.07;0.90;;;;;;;24.63;75.28;100418.41;5018421;28;20191;-77
2023/05/06 09:18:12;;;;;;;1.43;1.20;;;;;;;24.69;75.30;100421.59;5020090;28;20966;-77
2023/05/06 09:20:45;;;;;;;0.90;0.90;;;;;;;24.73;75.07;100412.53;5023848;28;20218;-76
2023/05/06 09:23:11;;;;;;;1.40;1.10;;;;;;;24.77;74.27;100416.66;5019921;28;20905;-76
2023/05/06 09:25:37;;;;;;;1.57;1.20;;;;;;;24.69;73.92;100419.78;5022439;28;20199;-77
2023/05/06 09:28:06;;;;;;;1.50;1.40;;;;;;;24.57;73.50;100412.66;5021570;28;20272;-76
2023/05/06 09:30:32;;;;;;;1.40;1.00;;;;;;;24.49;73.85;100408.75;5022642;28;20208;-76
2023/05/06 09:33:02;;;;;;;1.07;0.97;;;;;;;24.55;74.00;100411.91;5018504;28;20687;-76
2023/05/06 09:35:28;;;;;;;1.33;1.20;;;;;;;24.49;73.60;100403.44;5020476;28;20229;-76
2023/05/06 09:37:53;;;;;;;1.20;1.10;;;;;;;24.50;73.52;100402.47;5021703;28;20248;-77
2023/05/06 09:40:22;;;;;;;1.60;1.13;;;;;;;24.49;73.44;100399.94;5021362;28;20203;-74
2023/05/06 09:42:50;;;;;;;1.53;1.10;;;;;;;24.57;73.37;100402.94;5021404;28;20238;-75
2023/05/06 09:45:16;;;;;;;1.50;0.90;;;;;;;24.66;73.68;100401.47;5023852;28;20261;-76
2023/05/06 09:47:42;;;;;;;1.43;0.90;;;;;;;24.70;73.31;100399.50;5018007;28;20246;-75
2023/05/06 09:50:08;;;;;;;2.70;1.40;;;;;;;24.61;71.88;100401.78;5021944;28;20195;-75
2023/05/06 09:52:34;;;;;;;1.83;1.00;;;;;;;24.44;71.55;100397.59;5019024;28;20242;-76
2023/05/06 09:55:00;;;;;;;1.57;1.30;;;;;;;24.19;71.93;100391.28;5023866;28;20192;-75
2023/05/06 09:57:29;;;;;;;2.77;1.67;;;;;;;23.74;72.18;100395.88;5005149;28;20350;-75
2023/05/06 09:59:56;;;;;;;1.97;1.30;;;;;;;23.56;72.59;100398.72;5019070;28;20199;-76
2023/05/06 10:02:22;;;;;;;1.67;1.37;;;;;;;23.43;72.43;100388.06;5021248;28;20209;-76
2023/05/06 10:04:48;;;;;;;1.63;1.10;;;;;;;23.34;72.09;100386.00;5017554;28;20199;-75
2023/05/06 10:07:18;;;;;;;3.73;1.07;;;;;;;23.21;72.02;100385.03;5025171;28;20196;-75
2023/05/06 10:09:44;;;;;;;2.80;1.07;;;;;;;23.16;72.30;100385.25;5018501;28;20191;-74
2023/05/06 10:12:09;;;;;;;1.27;1.17;;;;;;;23.14;73.07;100381.88;5023155;28;21106;-76
2023/05/06 10:14:36;;;;;;;1.53;1.00;;;;;;;23.13;72.09;100383.66;5023325;28;20219;-76
2023/05/06 10:17:10;;;;;;;2.57;1.30;;;;;;;22.84;71.88;100375.69;5022524;28;20187;-75
2023/05/06 10:19:40;;;;;;;2.33;1.10;;;;;;;22.53;70.73;100388.03;5016812;28;20202;-75
2023/05/06 10:22:28;;;;;;;1.47;0.97;;;;;;;22.23;70.24;100383.53;5023152;28;20191;-75
2023/05/06 10:25:02;;;;;;;1.50;0.90;;;;;;;22.20;71.04;100372.34;5024588;28;20198;-75
2023/05/06 10:27:30;;;;;;;1.53;1.00;;;;;;;22.16;71.54;100373.44;5019043;28;20238;-75
2023/05/06 10:29:58;;;;;;;1.70;1.00;;;;;;;22.16;70.56;100376.06;5022539;28;20195;-74
2023/05/06 10:32:25;;;;;;;2.77;1.00;;;;;;;22.17;70.22;100373.34;5022907;28;20211;-75
2023/05/06 10:34:57;;;;;;;1.57;1.10;;;;;;;22.17;69.98;100365.44;5022533;28;20188;-75
2023/05/06 10:37:26;;;;;;;1.13;0.90;;;;;;;22.21;70.00;100361.69;5018876;28;20261;-76
2023/05/06 10:39:53;;;;;;;1.17;0.80;;;;;;;22.31;70.12;100353.28;5019067;28;20183;-76
2023/05/06 10:42:18;;;;;;;1.90;1.00;;;;;;;22.36;70.40;100338.03;5016785;28;21075;-76
2023/05/06 10:44:57;;;;;;;0.80;0.80;;;;;;;22.40;70.71;100344.81;5023825;28;20179;-76
2023/05/06 10:47:22;;;;;;;0.90;0.80;;;;;;;22.46;70.53;100341.00;5024528;28;20210;-77
2023/05/06 10:50:20;;;;;;;1.30;0.97;;;;;;;22.37;70.43;100345.88;5025638;28;20828;-76
2023/05/06 10:52:46;;;;;;;1.27;1.03;;;;;;;22.31;70.75;100332.19;5023247;28;20215;-76
2023/05/06 10:55:32;;;;;;;1.20;1.07;;;;;;;22.17;71.22;100335.59;5018385;28;20230;-75
2023/05/06 10:58:01;;;;;;;2.13;1.10;;;;;;;22.15;71.44;100330.44;5022216;28;20198;-76
2023/05/06 11:00:30;;;;;;;1.03;0.90;;;;;;;22.17;71.17;100325.06;5019897;28;20266;-76
2023/05/06 11:02:56;;;;;;;1.07;0.97;;;;;;;22.33;71.49;100325.00;5015130;28;20219;-75
2023/05/06 11:05:22;;;;;;;1.10;1.00;;;;;;;22.44;71.36;100319.16;5022067;28;20195;-75
2023/05/06 11:07:54;;;;;;;1.10;0.80;;;;;;;22.58;71.33;100316.56;5017982;28;20294;-75
2023/05/06 11:10:32;;;;;;;2.10;1.00;;;;;;;22.69;71.31;100321.19;5019100;28;20191;-76
2023/05/06 11:13:16;;;;;;;2.67;1.10;;;;;;;22.68;70.97;100315.09;5020916;28;20222;-75
2023/05/06 11:15:42;;;;;;;2.00;1.10;;;;;;;22.69;71.02;100322.03;5022450;28;20222;-75
2023/05/06 11:18:23;;;;;;;0.93;0.90;;;;;;;22.69;70.40;100308.84;5027226;28;20972;-75
2023/05/06 11:20:50;;;;;;;1.00;0.90;;;;;;;22.74;69.97;100308.59;5023105;28;20676;-75